Terminal Aerodrome Forecast
Issued by NWS Sioux Falls, SD

Home | Current Version | Previous Version | Text Only | Print | Product List | Glossary Off
Versions: 1 2 3 4 5 6 7 8 9 10 11 12 13 14 15 16 17 18 19 20 21 22 23 24 25 26 27 28

000
FTUS43 KFSD 281639 AAA
TAFSUX
TAF AMD
KSUX 281639Z 2817/2912 24009KT P6SM SCT015 BKN035
      TEMPO 2817/2819 -TSRA BKN015CB
     FM281900 32014G22KT P6SM SCT035
     FM290200 33006KT P6SM SKC=

USA.gov is the U.S. government's official web portal to all federal, state and local government web resources and services.